Time;durP1;ratioP1;P1;durP2;ratioP2;P2;SDS_P1;SDS_P2;PMS_P1;PMS_P2;Temp;Humidity;BMP_temperature;BMP_pressure;BME280_temperature;BME280_humidity;BME280_pressure;Samples;Min_cycle;Max_cycle;Signal;HPM_P1;HPM_P2
2022/05/17 00:00:25;;;;;;;12.70;8.10;;;;;;;14.87;100.00;101172.20;108028;1279;74205;-84
2022/05/17 00:03:03;;;;;;;10.60;5.80;;;;;;;14.88;100.00;101177.06;108002;1279;71835;-84
2022/05/17 00:05:42;;;;;;;14.80;8.20;;;;;;;14.88;100.00;101178.37;107875;1279;72642;-83
2022/05/17 00:08:12;;;;;;;11.00;7.20;;;;;;;14.87;100.00;101173.92;108096;1278;62352;-83
2022/05/17 00:13:31;;;;;;;19.30;10.50;;;;;;;14.88;100.00;101177.72;107782;1268;181579;-83
2022/05/17 00:16:01;;;;;;;14.30;9.10;;;;;;;14.88;100.00;101179.68;107962;1277;72886;-84
2022/05/17 00:18:28;;;;;;;15.30;9.40;;;;;;;14.88;100.00;101182.00;108058;1277;74238;-83
2022/05/17 00:20:54;;;;;;;12.50;8.40;;;;;;;14.90;100.00;101187.14;108061;1277;63955;-83
2022/05/17 00:23:23;;;;;;;18.70;10.90;;;;;;;14.90;100.00;101190.89;108082;1277;61368;-83
2022/05/17 00:25:50;;;;;;;15.70;10.00;;;;;;;14.91;100.00;101185.59;108094;1277;75144;-83
2022/05/17 00:28:19;;;;;;;15.60;9.30;;;;;;;14.92;100.00;101185.35;108027;1277;72607;-84
2022/05/17 00:30:48;;;;;;;12.80;8.90;;;;;;;14.92;100.00;101182.61;107899;1277;73996;-84
2022/05/17 00:33:16;;;;;;;15.90;10.10;;;;;;;14.93;100.00;101186.66;107935;1277;62386;-84
2022/05/17 00:35:49;;;;;;;16.90;10.20;;;;;;;14.94;100.00;101183.81;108136;1277;60380;-83
2022/05/17 00:38:16;;;;;;;10.60;6.10;;;;;;;14.94;100.00;101185.02;108082;1277;74326;-84
2022/05/17 00:40:44;;;;;;;13.80;7.60;;;;;;;14.95;100.00;101184.03;107967;1279;70990;-83
2022/05/17 00:44:42;;;;;;;13.80;8.40;;;;;;;14.95;100.00;101184.35;108072;1277;72934;-83
2022/05/17 00:46:28;;;;;;;16.40;10.50;;;;;;;14.96;100.00;101183.42;108189;1277;61989;-83
2022/05/17 00:49:08;;;;;;;16.60;10.70;;;;;;;14.96;100.00;101186.80;107989;1279;60920;-83
2022/05/17 00:56:42;;;;;;;14.00;9.10;;;;;;;14.96;100.00;101184.66;108206;1267;58632;31
2022/05/17 00:59:17;;;;;;;17.70;11.00;;;;;;;14.96;100.00;101183.17;107786;1279;63321;-84
2022/05/17 01:01:43;;;;;;;21.50;12.10;;;;;;;14.97;100.00;101185.57;107953;1280;60989;-84
2022/05/17 01:04:12;;;;;;;16.60;10.30;;;;;;;14.97;100.00;101184.26;107937;1280;75307;-84
2022/05/17 01:06:45;;;;;;;20.60;12.00;;;;;;;14.98;100.00;101181.48;107808;1281;71552;-84
2022/05/17 01:09:20;;;;;;;17.30;10.50;;;;;;;15.00;100.00;101181.85;107887;1279;73984;-84
2022/05/17 01:11:47;;;;;;;19.70;10.60;;;;;;;15.00;100.00;101180.01;107792;1281;60826;-84
2022/05/17 01:17:13;;;;;;;17.40;12.20;;;;;;;15.02;100.00;101176.35;107900;1280;75291;-84
2022/05/17 01:19:47;;;;;;;21.00;12.90;;;;;;;15.02;100.00;101177.51;107933;1279;71445;-84
2022/05/17 01:22:23;;;;;;;25.80;13.40;;;;;;;15.03;100.00;101177.43;107857;1280;74253;-84
2022/05/17 01:24:57;;;;;;;23.50;12.10;;;;;;;15.04;100.00;101177.52;107762;1279;62202;-85
2022/05/17 01:27:47;;;;;;;16.70;11.00;;;;;;;15.03;100.00;101173.98;107852;1281;59419;-84
2022/05/17 01:30:17;;;;;;;18.80;12.40;;;;;;;15.00;100.00;101168.75;108071;1281;74644;-84
2022/05/17 01:32:43;;;;;;;18.50;11.80;;;;;;;14.99;100.00;101166.63;108065;1280;71487;-84
2022/05/17 01:35:10;;;;;;;19.80;11.00;;;;;;;14.97;100.00;101163.16;108317;1279;73333;-84
2022/05/17 01:37:37;;;;;;;21.30;14.00;;;;;;;14.93;100.00;101162.36;108015;1279;58365;-84
2022/05/17 01:40:04;;;;;;;20.30;12.40;;;;;;;14.89;100.00;101164.70;107716;1281;59494;-84
2022/05/17 01:42:33;;;;;;;16.90;11.50;;;;;;;14.85;100.00;101164.25;107790;1280;75206;-84
2022/05/17 01:45:00;;;;;;;21.30;12.50;;;;;;;14.82;100.00;101168.21;107733;1281;71042;-84
2022/05/17 01:47:32;;;;;;;21.60;12.90;;;;;;;14.80;100.00;101164.61;107835;1279;72684;-84
2022/05/17 01:50:02;;;;;;;26.30;15.10;;;;;;;14.78;100.00;101165.50;107962;1279;63272;-85
2022/05/17 01:52:34;;;;;;;17.20;11.50;;;;;;;14.77;100.00;101166.51;107891;1279;61831;-84
2022/05/17 01:55:12;;;;;;;20.10;11.80;;;;;;;14.77;100.00;101166.34;107658;1279;75223;-84
2022/05/17 01:57:50;;;;;;;21.60;14.50;;;;;;;14.76;100.00;101157.79;108074;1270;72790;-84
2022/05/17 02:00:24;;;;;;;25.80;14.10;;;;;;;14.75;100.00;101153.14;108199;1277;75068;-84
2022/05/17 02:02:51;;;;;;;20.40;11.90;;;;;;;14.73;100.00;101152.83;108221;1277;63036;-84
2022/05/17 02:05:19;;;;;;;22.10;13.90;;;;;;;14.69;100.00;101149.48;108269;1277;60144;-85
2022/05/17 02:07:50;;;;;;;19.60;13.90;;;;;;;14.66;100.00;101149.86;108256;1277;73937;-85
2022/05/17 02:10:25;;;;;;;24.50;13.70;;;;;;;14.63;100.00;101150.27;108288;1277;71614;-84
2022/05/17 02:12:53;;;;;;;23.40;15.00;;;;;;;14.60;100.00;101149.17;108228;1277;72961;-84
2022/05/17 02:15:20;;;;;;;22.70;14.00;;;;;;;14.58;100.00;101152.79;108135;1277;62225;-85
2022/05/17 02:17:48;;;;;;;24.90;14.90;;;;;;;14.56;100.00;101152.22;108419;1277;60232;-85
2022/05/17 02:20:15;;;;;;;18.80;13.50;;;;;;;14.54;100.00;101153.20;108511;1276;74187;-84
2022/05/17 02:22:41;;;;;;;22.60;14.70;;;;;;;14.50;100.00;101152.54;108235;1275;71697;-84
2022/05/17 02:25:09;;;;;;;27.60;14.80;;;;;;;14.47;100.00;101148.40;108243;1277;74331;-84
2022/05/17 02:27:37;;;;;;;23.10;14.70;;;;;;;14.45;100.00;101149.08;108137;1277;63272;-84
2022/05/17 02:30:27;;;;;;;22.60;14.10;;;;;;;14.43;100.00;101149.85;108059;1277;60369;-85
2022/05/17 02:32:59;;;;;;;20.30;14.30;;;;;;;14.40;100.00;101147.14;107979;1277;75125;-84
2022/05/17 02:35:27;;;;;;;22.90;16.40;;;;;;;14.35;100.00;101150.16;108202;1277;71358;-85
2022/05/17 02:37:57;;;;;;;24.10;14.10;;;;;;;14.32;100.00;101148.94;107909;1278;73011;-84
2022/05/17 02:40:37;;;;;;;26.80;15.20;;;;;;;14.28;100.00;101150.11;108191;1269;61221;-84
2022/05/17 02:43:11;;;;;;;20.50;13.80;;;;;;;14.25;100.00;101148.87;108576;1276;60297;-84
2022/05/17 02:45:49;;;;;;;18.40;11.60;;;;;;;14.22;100.00;101149.32;108455;1277;74607;-84
2022/05/17 02:48:23;;;;;;;25.20;15.60;;;;;;;14.21;100.00;101154.10;108375;1278;69969;-84
2022/05/17 02:51:13;;;;;;;27.10;15.80;;;;;;;14.22;100.00;101150.30;108406;1277;72773;-84
2022/05/17 02:53:40;;;;;;;27.30;17.30;;;;;;;14.23;100.00;101151.01;108062;1277;62312;-84
2022/05/17 02:56:08;;;;;;;25.90;16.20;;;;;;;14.24;100.00;101150.05;107655;1278;62687;-84
2022/05/17 02:58:37;;;;;;;20.10;14.20;;;;;;;14.24;100.00;101151.57;107973;1277;75245;-84
2022/05/17 03:01:09;;;;;;;22.00;14.50;;;;;;;14.25;100.00;101158.52;108008;1277;70104;-84
2022/05/17 03:03:41;;;;;;;25.10;16.50;;;;;;;14.23;100.00;101161.52;108097;1277;74012;-84
2022/05/17 03:06:09;;;;;;;25.70;16.40;;;;;;;14.23;100.00;101163.90;107957;1278;62162;-84
2022/05/17 03:08:37;;;;;;;24.40;15.80;;;;;;;14.23;100.00;101167.79;108022;1277;61684;-84
2022/05/17 03:11:07;;;;;;;22.60;15.30;;;;;;;14.24;100.00;101169.58;108218;1277;74147;-84
2022/05/17 03:13:38;;;;;;;22.90;14.90;;;;;;;14.25;100.00;101172.27;107996;1277;71144;-84
2022/05/17 03:16:35;;;;;;;24.90;15.60;;;;;;;14.28;100.00;101177.44;108070;1277;72994;-84
2022/05/17 03:19:16;;;;;;;23.70;15.50;;;;;;;14.32;100.00;101176.04;107675;1280;63534;-84
2022/05/17 03:21:48;;;;;;;23.10;15.10;;;;;;;14.35;100.00;101177.95;107792;1271;60190;-83
2022/05/17 03:24:25;;;;;;;26.00;14.80;;;;;;;14.37;100.00;101178.70;108072;1279;75627;-84
2022/05/17 03:27:07;;;;;;;18.70;13.20;;;;;;;14.41;100.00;101178.98;107933;1279;69924;-84
2022/05/17 03:29:34;;;;;;;22.30;14.20;;;;;;;14.42;100.00;101183.76;107960;1279;73984;-84
2022/05/17 03:32:00;;;;;;;21.20;14.60;;;;;;;14.44;100.00;101182.45;107922;1279;62257;-84
2022/05/17 03:34:27;;;;;;;18.50;13.30;;;;;;;14.47;100.00;101186.56;107713;1279;60613;-84
2022/05/17 03:36:54;;;;;;;25.10;13.50;;;;;;;14.49;100.00;101188.45;107920;1279;75039;-84
2022/05/17 03:39:21;;;;;;;21.20;12.70;;;;;;;14.50;100.00;101191.55;107834;1279;71135;-84
2022/05/17 03:41:47;;;;;;;21.20;13.10;;;;;;;14.51;100.00;101195.75;107935;1279;58154;-84
2022/05/17 03:44:15;;;;;;;20.00;12.70;;;;;;;14.50;100.00;101196.65;108025;1278;62399;-84
2022/05/17 03:46:44;;;;;;;19.60;13.60;;;;;;;14.50;100.00;101197.63;107924;1279;60347;-84
2022/05/17 03:49:16;;;;;;;19.30;13.10;;;;;;;14.48;100.00;101208.98;107969;1278;74132;-84
2022/05/17 03:51:50;;;;;;;17.70;11.90;;;;;;;14.47;100.00;101207.54;108066;1278;72451;-84
2022/05/17 03:54:22;;;;;;;17.20;12.30;;;;;;;14.46;100.00;101207.98;107937;1277;73422;-84
2022/05/17 03:59:41;;;;;;;18.90;11.40;;;;;;;14.46;100.00;101214.73;108256;1278;59472;-84
2022/05/17 04:02:14;;;;;;;19.30;10.10;;;;;;;14.47;100.00;101213.41;108019;1279;73882;-85
2022/05/17 04:04:41;;;;;;;14.70;9.10;;;;;;;14.47;100.00;101213.23;108002;1278;72181;-84
2022/05/17 04:07:09;;;;;;;17.30;11.40;;;;;;;14.48;100.00;101215.77;107910;1277;73105;-84
2022/05/17 04:09:37;;;;;;;18.00;11.20;;;;;;;14.48;100.00;101217.52;108002;1278;63870;-84
2022/05/17 04:12:07;;;;;;;13.80;7.70;;;;;;;14.47;100.00;101219.41;108035;1279;59220;-84
2022/05/17 04:14:35;;;;;;;21.90;11.00;;;;;;;14.46;100.00;101220.53;108098;1278;74244;-84
2022/05/17 04:17:05;;;;;;;21.10;10.60;;;;;;;14.43;100.00;101222.84;107964;1279;71349;-84
2022/05/17 04:19:35;;;;;;;17.80;9.10;;;;;;;14.40;100.00;101221.30;107823;1279;72984;-84
2022/05/17 04:22:01;;;;;;;20.40;11.60;;;;;;;14.37;100.00;101215.39;107774;1279;62850;-84
2022/05/17 04:24:28;;;;;;;20.60;10.40;;;;;;;14.35;100.00;101218.41;107869;1281;60542;-84
2022/05/17 04:26:58;;;;;;;13.90;11.10;;;;;;;14.34;100.00;101216.46;107878;1279;74192;-87
2022/05/17 04:29:25;;;;;;;19.60;11.70;;;;;;;14.34;100.00;101216.26;107804;1281;72818;-88
2022/05/17 04:40:24;;;;;;;14.70;10.00;;;;;;;14.36;100.00;101222.64;108229;1281;72829;-82
2022/05/17 04:43:30;;;;;;;17.50;8.40;;;;;;;14.36;100.00;101221.23;107841;1281;58308;-81
2022/05/17 04:45:59;;;;;;;14.00;9.30;;;;;;;14.34;100.00;101218.59;107866;1282;72925;-81
2022/05/17 04:49:09;;;;;;;18.40;10.40;;;;;;;14.34;100.00;101221.67;107912;1281;61350;-81
2022/05/17 04:52:25;;;;;;;;;;;;;;;;;;;;;
2022/05/17 04:55:16;;;;;;;16.10;8.50;;;;;;;14.34;100.00;101223.02;107861;1281;74264;-82
2022/05/17 04:58:33;;;;;;;;;;;;;;;;;;;;;
2022/05/17 05:01:22;;;;;;;;;;;;;;;;;;;;;
2022/05/17 05:04:41;;;;;;;;;;;;;;;;;;;;;
2022/05/17 05:07:48;;;;;;;17.60;9.00;;;;;;;14.32;100.00;101238.44;108037;1279;60713;-81
2022/05/17 05:10:15;;;;;;;16.50;11.10;;;;;;;14.32;100.00;101241.43;108025;1281;74207;-81
2022/05/17 05:12:48;;;;;;;14.80;7.20;;;;;;;14.32;100.00;101244.30;108145;1280;71541;-81
2022/05/17 05:15:20;;;;;;;13.90;8.20;;;;;;;14.31;100.00;101247.38;107990;1281;72248;-81
2022/05/17 05:17:48;;;;;;;17.70;8.30;;;;;;;14.33;100.00;101249.02;108012;1281;62261;-81
2022/05/17 05:20:16;;;;;;;13.60;9.00;;;;;;;14.35;100.00;101251.36;107900;1282;60200;-80
2022/05/17 05:22:43;;;;;;;19.60;9.90;;;;;;;14.41;100.00;101253.34;107983;1281;73317;-82
2022/05/17 05:25:12;;;;;;;17.00;10.40;;;;;;;14.50;100.00;101257.39;108167;1281;71342;-82
2022/05/17 05:28:00;;;;;;;;;;;;;;;;;;;;;
2022/05/17 05:30:29;;;;;;;17.40;7.80;;;;;;;14.71;100.00;101262.31;107749;1281;62524;-80
2022/05/17 05:32:57;;;;;;;12.80;7.70;;;;;;;14.82;100.00;101263.34;107756;1281;60614;-80
2022/05/17 05:35:25;;;;;;;16.80;8.00;;;;;;;14.92;100.00;101262.20;107462;1284;74787;-81
2022/05/17 05:37:55;;;;;;;14.90;7.60;;;;;;;15.03;100.00;101264.83;107856;1281;71381;-80
2022/05/17 05:40:22;;;;;;;16.30;7.60;;;;;;;15.13;100.00;101264.05;107780;1281;72971;-80
2022/05/17 05:43:25;;;;;;;14.60;7.50;;;;;;;15.23;100.00;101269.45;107607;1282;62256;-82
2022/05/17 05:46:00;;;;;;;15.70;8.40;;;;;;;15.33;100.00;101271.15;107617;1282;59887;-81
2022/05/17 05:48:29;;;;;;;14.30;8.00;;;;;;;15.45;100.00;101268.48;107639;1281;75279;-81
2022/05/17 05:50:58;;;;;;;16.10;7.50;;;;;;;15.56;100.00;101266.94;107609;1282;71414;-81
2022/05/17 05:53:29;;;;;;;11.60;7.20;;;;;;;15.66;100.00;101272.77;107518;1283;72969;-81
2022/05/17 05:56:01;;;;;;;13.10;7.20;;;;;;;15.75;100.00;101270.04;107936;1280;62286;-81
2022/05/17 05:58:38;;;;;;;11.60;6.30;;;;;;;15.86;100.00;101268.52;107983;1281;61799;-81
2022/05/17 06:01:27;;;;;;;14.70;7.70;;;;;;;15.95;100.00;101276.14;107846;1281;74138;-81
2022/05/17 06:04:17;;;;;;;14.90;7.00;;;;;;;16.07;99.91;101278.31;108130;1281;71416;-80
2022/05/17 06:06:50;;;;;;;17.10;6.90;;;;;;;16.17;98.21;101276.48;108334;1281;72951;-81
2022/05/17 06:09:31;;;;;;;12.80;6.30;;;;;;;16.25;97.57;101278.87;108041;1281;62257;-81
2022/05/17 06:12:10;;;;;;;;;;;;;;;;;;;;;
2022/05/17 06:14:39;;;;;;;13.90;7.10;;;;;;;16.41;94.45;101282.31;107990;1281;75154;-81
2022/05/17 06:17:09;;;;;;;14.40;6.70;;;;;;;16.48;94.12;101287.17;107764;1281;72854;-81
2022/05/17 06:20:11;;;;;;;17.90;7.10;;;;;;;16.58;94.54;101285.60;107560;1280;73977;-82
2022/05/17 06:23:03;;;;;;;15.10;6.10;;;;;;;16.70;94.14;101286.02;107724;1282;63423;-83
2022/05/17 06:26:23;;;;;;;13.20;6.20;;;;;;;16.71;93.33;101284.17;107714;1282;60374;-82
2022/05/17 06:29:39;;;;;;;;;;;;;;;;;;;;;
2022/05/17 06:33:01;;;;;;;;;;;;;;;;;;;;;
2022/05/17 06:35:28;;;;;;;12.70;5.30;;;;;;;16.90;91.48;101278.80;107385;1282;71905;-83
2022/05/17 06:38:05;;;;;;;10.80;5.50;;;;;;;16.98;90.53;101277.09;107561;1284;63192;-85
2022/05/17 06:40:37;;;;;;;15.20;6.00;;;;;;;17.06;89.53;101279.67;107872;1281;60378;-87
2022/05/17 06:43:10;;;;;;;9.40;4.40;;;;;;;17.22;90.01;101282.05;107639;1282;74176;-87
2022/05/17 06:45:39;;;;;;;10.70;5.90;;;;;;;17.30;87.82;101279.37;107621;1284;71730;-86
2022/05/17 06:48:19;;;;;;;13.50;5.60;;;;;;;17.40;87.94;101287.26;107549;1283;73287;-86
2022/05/17 06:50:46;;;;;;;15.20;5.60;;;;;;;17.52;86.78;101291.05;107671;1281;63637;-86
2022/05/17 06:53:13;;;;;;;13.60;6.00;;;;;;;17.66;86.55;101292.46;107332;1281;60836;-87
2022/05/17 06:55:41;;;;;;;11.50;6.60;;;;;;;17.75;86.84;101291.51;107619;1281;74029;-87
2022/05/17 06:58:10;;;;;;;8.70;4.70;;;;;;;17.79;86.10;101288.33;107565;1282;71552;-87
2022/05/17 07:00:40;;;;;;;11.80;4.90;;;;;;;17.82;85.38;101288.55;107654;1281;73048;-86
2022/05/17 07:06:08;;;;;;;16.30;5.40;;;;;;;17.86;82.92;101300.65;108071;1272;60021;-87
2022/05/17 07:08:53;;;;;;;11.80;5.20;;;;;;;18.01;83.64;101295.14;107917;1279;75264;-87
2022/05/17 07:14:45;;;;;;;;;;;;;;;;;;;;;
2022/05/17 07:17:19;;;;;;;7.70;5.00;;;;;;;18.11;83.40;101296.10;107995;1277;62604;-87
2022/05/17 07:20:03;;;;;;;10.30;5.00;;;;;;;18.21;81.96;101290.84;108151;1277;62162;-87
2022/05/17 07:22:45;;;;;;;11.30;5.40;;;;;;;18.30;81.98;101293.29;107803;1280;74669;-87
2022/05/17 07:25:13;;;;;;;11.10;4.60;;;;;;;18.44;81.87;101297.29;108083;1278;71852;-87
2022/05/17 07:27:45;;;;;;;11.30;4.60;;;;;;;18.56;80.94;101296.83;108078;1277;72985;-87
2022/05/17 07:30:14;;;;;;;7.80;3.70;;;;;;;18.73;80.46;101297.58;108188;1277;62237;-87
2022/05/17 07:32:41;;;;;;;9.50;5.40;;;;;;;18.84;79.32;101296.52;108077;1277;60388;-86
2022/05/17 07:35:08;;;;;;;9.60;4.30;;;;;;;19.04;80.02;101297.35;108020;1277;74280;-85
2022/05/17 07:37:38;;;;;;;9.10;3.90;;;;;;;19.24;77.54;101307.66;107807;1280;72531;-85
2022/05/17 07:40:05;;;;;;;13.40;4.80;;;;;;;19.42;75.65;101308.64;107930;1281;73316;-85
2022/05/17 07:42:32;;;;;;;12.30;4.60;;;;;;;19.60;75.21;101308.05;107815;1277;62774;-84
2022/05/17 07:45:01;;;;;;;12.10;4.80;;;;;;;19.72;74.79;101307.92;108082;1279;61647;-85
2022/05/17 07:47:29;;;;;;;11.30;3.90;;;;;;;19.78;73.79;101306.11;107891;1280;74117;-84
2022/05/17 07:49:56;;;;;;;8.00;3.20;;;;;;;19.78;72.36;101314.21;107876;1281;70419;-85
2022/05/17 07:52:38;;;;;;;9.10;3.90;;;;;;;19.78;72.66;101306.97;108074;1277;75109;-86
2022/05/17 07:55:11;;;;;;;9.20;4.40;;;;;;;19.80;72.92;101312.66;108300;1277;62044;-86
2022/05/17 07:57:47;;;;;;;9.50;3.60;;;;;;;19.77;72.65;101310.45;107951;1279;60793;-85
2022/05/17 08:00:23;;;;;;;10.40;4.30;;;;;;;19.72;72.26;101307.39;108003;1279;74165;-86
2022/05/17 08:02:53;;;;;;;8.50;4.70;;;;;;;19.67;72.64;101306.25;108007;1277;74163;-87
2022/05/17 08:05:39;;;;;;;12.40;4.30;;;;;;;19.69;73.43;101306.73;108134;1277;74508;-88
2022/05/17 08:08:13;;;;;;;7.80;3.50;;;;;;;19.75;73.56;101308.60;108044;1278;62013;-88
2022/05/17 08:10:41;;;;;;;11.20;4.60;;;;;;;19.84;73.62;101310.39;108013;1279;59879;-87
2022/05/17 08:13:24;;;;;;;10.50;3.90;;;;;;;19.89;72.90;101310.92;107573;1280;75073;-88
2022/05/17 08:15:54;;;;;;;11.60;5.00;;;;;;;19.93;72.41;101317.02;108098;1278;72302;-87
2022/05/17 08:18:30;;;;;;;9.10;3.70;;;;;;;19.92;72.52;101313.76;107966;1280;74773;-87
2022/05/17 08:20:57;;;;;;;6.90;3.50;;;;;;;19.94;72.04;101316.92;108110;1278;62068;-86
2022/05/17 08:23:29;;;;;;;9.80;3.70;;;;;;;19.86;71.31;101312.44;107983;1280;59259;-86
2022/05/17 08:28:47;;;;;;;11.00;4.50;;;;;;;19.99;71.64;101316.83;108007;1278;71887;-87
2022/05/17 08:31:14;;;;;;;6.10;3.30;;;;;;;20.15;71.07;101319.36;108011;1280;72948;-87
2022/05/17 08:33:50;;;;;;;12.30;4.20;;;;;;;20.32;70.68;101320.77;107834;1280;61787;-86
2022/05/17 08:36:22;;;;;;;9.10;3.70;;;;;;;20.55;70.62;101323.08;107978;1280;60623;-86
2022/05/17 08:38:50;;;;;;;7.10;3.00;;;;;;;20.77;69.70;101324.14;108009;1279;75434;-86
2022/05/17 08:41:45;;;;;;;10.50;3.50;;;;;;;20.88;68.09;101322.71;107988;1280;72932;-86
2022/05/17 08:44:14;;;;;;;9.40;3.00;;;;;;;20.90;65.88;101329.57;107782;1279;72693;-86
2022/05/17 08:47:01;;;;;;;9.20;2.90;;;;;;;20.96;65.77;101329.24;107743;1279;61865;-87
2022/05/17 08:50:00;;;;;;;7.90;2.70;;;;;;;21.09;65.36;101328.52;108043;1280;60163;-88
2022/05/17 08:52:31;;;;;;;6.10;2.00;;;;;;;21.08;64.13;101329.70;108006;1280;75808;-87
2022/05/17 08:55:15;;;;;;;6.60;2.00;;;;;;;21.20;64.66;101319.56;108024;1279;71793;-86
2022/05/17 08:58:04;;;;;;;5.80;2.20;;;;;;;21.27;63.64;101325.84;107795;1281;72984;-88
2022/05/17 09:00:54;;;;;;;6.00;2.10;;;;;;;21.19;62.56;101334.06;107776;1278;61632;-88
2022/05/17 09:03:47;;;;;;;7.30;1.90;;;;;;;21.28;62.37;101324.73;107631;1279;748851;-87
2022/05/17 09:06:26;;;;;;;8.60;1.80;;;;;;;21.42;62.39;101327.92;108097;1279;74209;-87
2022/05/17 09:09:02;;;;;;;6.30;2.20;;;;;;;21.51;60.74;101330.58;108105;1280;71185;-87
2022/05/17 09:11:43;;;;;;;6.40;1.60;;;;;;;21.53;60.00;101331.87;107925;1281;72630;-87
2022/05/17 09:14:17;;;;;;;5.20;1.70;;;;;;;21.60;59.71;101331.66;107826;1278;60689;-86
2022/05/17 09:17:06;;;;;;;5.40;1.50;;;;;;;21.64;58.78;101328.84;108066;1280;61805;-86
2022/05/17 09:19:33;;;;;;;3.80;1.20;;;;;;;21.72;58.11;101332.23;108168;1278;74480;-86
2022/05/17 09:22:03;;;;;;;5.00;1.90;;;;;;;21.84;58.05;101337.91;108198;1280;71671;-85
2022/05/17 09:24:35;;;;;;;4.60;1.70;;;;;;;21.84;56.72;101339.42;108137;1278;71996;-86
2022/05/17 09:27:40;;;;;;;4.30;1.40;;;;;;;21.84;57.39;101335.48;107852;1279;60368;-86
2022/05/17 09:30:14;;;;;;;4.00;1.30;;;;;;;21.83;57.18;101341.81;107791;1280;61648;-86
2022/05/17 09:32:47;;;;;;;4.80;1.30;;;;;;;21.77;57.12;101336.66;108085;1279;75294;-88
2022/05/17 09:35:20;;;;;;;7.80;1.30;;;;;;;21.87;56.94;101336.29;108256;1277;70849;-88
2022/05/17 09:37:58;;;;;;;3.10;0.90;;;;;;;21.88;55.44;101336.20;107867;1280;73031;-88
2022/05/17 09:40:32;;;;;;;5.20;1.40;;;;;;;21.92;54.66;101339.65;108092;1278;61329;-88
2022/05/17 09:43:09;;;;;;;4.50;1.10;;;;;;;21.99;54.15;101336.59;108010;1278;60652;-86
2022/05/17 09:45:45;;;;;;;4.10;0.90;;;;;;;21.99;53.51;101340.90;107836;1280;74029;-84
2022/05/17 09:48:30;;;;;;;3.10;1.00;;;;;;;22.04;52.85;101340.08;107858;1280;73410;-85
2022/05/17 09:53:45;;;;;;;3.00;0.90;;;;;;;21.87;54.26;101343.38;107874;1279;60407;-84
2022/05/17 09:56:16;;;;;;;4.70;0.80;;;;;;;21.89;53.68;101353.80;108137;1278;60424;-83
2022/05/17 09:58:44;;;;;;;7.00;1.00;;;;;;;21.84;53.71;101348.95;108102;1279;75694;-83
2022/05/17 10:01:20;;;;;;;4.50;1.30;;;;;;;21.88;53.15;101351.45;108085;1279;71413;-83
2022/05/17 10:04:11;;;;;;;6.20;1.40;;;;;;;21.91;53.72;101350.98;108444;1278;74268;-83
2022/05/17 10:06:41;;;;;;;5.40;1.30;;;;;;;21.97;53.80;101347.38;108044;1278;62098;-83
2022/05/17 10:09:12;;;;;;;4.60;1.30;;;;;;;22.14;53.88;101350.52;107709;1280;60722;-84
2022/05/17 10:12:05;;;;;;;3.40;1.10;;;;;;;22.24;52.47;101350.73;107934;1280;72880;-83
2022/05/17 10:14:40;;;;;;;6.50;1.40;;;;;;;22.40;51.71;101350.86;107854;1279;72612;-83
2022/05/17 10:17:14;;;;;;;6.80;1.50;;;;;;;22.49;51.43;101359.38;108165;1278;71657;-83
2022/05/17 10:19:47;;;;;;;7.10;1.50;;;;;;;22.50;51.71;101349.76;108017;1279;59293;-83
2022/05/17 10:22:56;;;;;;;4.20;1.60;;;;;;;22.61;52.59;101351.20;107994;1281;60504;-83
2022/05/17 10:25:41;;;;;;;4.30;1.40;;;;;;;22.65;52.79;101345.09;107756;1278;72933;-83
2022/05/17 10:28:18;;;;;;;5.80;1.50;;;;;;;22.61;52.26;101347.44;108163;1279;72892;-83
2022/05/17 10:30:50;;;;;;;4.30;1.40;;;;;;;22.66;50.99;101343.98;107994;1279;73535;-83
2022/05/17 10:33:50;;;;;;;4.00;1.20;;;;;;;22.69;50.89;101336.20;107823;1279;61589;-84
2022/05/17 10:36:49;;;;;;;2.40;0.90;;;;;;;22.68;50.66;101341.42;107946;1280;60899;-84
2022/05/17 10:39:34;;;;;;;4.60;1.30;;;;;;;22.83;49.27;101337.72;108161;1279;74071;-84
2022/05/17 10:42:01;;;;;;;4.30;1.20;;;;;;;22.98;48.60;101338.98;107680;1280;72793;-84
2022/05/17 10:44:41;;;;;;;2.80;0.90;;;;;;;23.14;49.41;101336.52;107976;1278;74001;-84
2022/05/17 10:47:14;;;;;;;5.00;1.10;;;;;;;23.36;48.37;101329.13;107982;1280;61505;-84
2022/05/17 10:50:02;;;;;;;3.30;1.30;;;;;;;23.39;47.21;101336.59;107783;1281;60133;-84
2022/05/17 10:52:31;;;;;;;4.80;1.10;;;;;;;23.31;47.61;101341.86;108110;1279;75264;-84
2022/05/17 10:55:03;;;;;;;6.00;1.30;;;;;;;23.45;48.80;101332.46;108129;1278;71760;-84
2022/05/17 10:57:43;;;;;;;3.90;1.20;;;;;;;23.69;48.38;101330.25;107968;1279;74037;-84
2022/05/17 11:00:25;;;;;;;5.20;1.10;;;;;;;23.97;47.79;101325.28;107944;1280;60696;-85
2022/05/17 11:03:01;;;;;;;5.10;1.20;;;;;;;24.22;45.75;101328.50;107851;1281;60317;-84
2022/05/17 11:05:43;;;;;;;4.00;1.00;;;;;;;24.33;44.77;101336.88;108006;1278;74085;-84
2022/05/17 11:08:21;;;;;;;7.00;1.80;;;;;;;24.47;44.49;101330.67;108142;1278;71377;-84
2022/05/17 11:10:54;;;;;;;3.00;1.10;;;;;;;24.41;46.24;101331.73;108005;1280;74309;-84
2022/05/17 11:13:37;;;;;;;3.80;1.30;;;;;;;24.22;46.08;101331.59;108185;1279;61933;-84
2022/05/17 11:16:14;;;;;;;2.70;1.30;;;;;;;24.02;45.33;101328.55;108002;1280;61687;-84
2022/05/17 11:18:48;;;;;;;2.30;0.80;;;;;;;24.00;44.70;101327.65;107990;1279;73364;-84
2022/05/17 11:21:21;;;;;;;6.20;1.50;;;;;;;23.99;42.93;101332.58;107603;1281;72424;-84
2022/05/17 11:23:56;;;;;;;3.60;1.10;;;;;;;23.90;43.86;101327.07;108015;1278;71640;-84
2022/05/17 11:26:34;;;;;;;3.00;1.20;;;;;;;23.89;44.96;101322.88;108162;1278;59601;-85
2022/05/17 11:29:42;;;;;;;2.50;0.80;;;;;;;24.05;43.90;101321.60;108027;1280;60354;-84
2022/05/17 11:32:31;;;;;;;3.90;1.00;;;;;;;24.32;43.76;101320.66;108103;1279;75883;-84
2022/05/17 11:35:02;;;;;;;4.90;1.30;;;;;;;24.57;43.50;101322.30;107985;1280;72436;-84
2022/05/17 11:37:31;;;;;;;2.90;0.90;;;;;;;24.73;42.18;101317.28;107931;1278;71911;-84
2022/05/17 11:40:04;;;;;;;4.50;1.10;;;;;;;24.68;41.47;101332.23;108013;1278;60634;-84
2022/05/17 11:45:49;;;;;;;4.90;1.20;;;;;;;24.52;42.50;101309.74;108070;1279;75147;-84
2022/05/17 11:48:19;;;;;;;3.40;1.10;;;;;;;24.89;42.91;101307.77;108027;1280;71368;-84
2022/05/17 11:50:51;;;;;;;3.10;1.40;;;;;;;25.09;41.73;101316.82;108022;1279;72696;-84
2022/05/17 11:53:24;;;;;;;5.70;1.40;;;;;;;24.86;41.61;101312.36;107988;1279;58402;-84
2022/05/17 11:56:32;;;;;;;5.90;1.30;;;;;;;24.52;42.07;101313.05;108107;1279;60362;-84
2022/05/17 11:59:19;;;;;;;4.30;1.00;;;;;;;24.36;42.74;101308.67;108162;1278;76958;-84
2022/05/17 12:01:49;;;;;;;4.80;1.40;;;;;;;24.70;42.71;101310.29;107570;1279;71812;-84
2022/05/17 12:04:22;;;;;;;5.40;1.30;;;;;;;25.15;40.76;101301.04;108133;1278;73000;-84
2022/05/17 12:06:48;;;;;;;3.30;1.20;;;;;;;25.61;40.02;101305.39;107953;1280;59867;-84
2022/05/17 12:09:18;;;;;;;3.60;1.10;;;;;;;25.85;40.06;101305.43;107824;1279;58482;-84
2022/05/17 12:11:59;;;;;;;4.00;1.60;;;;;;;25.70;40.18;101302.02;108153;1278;75110;-84
2022/05/17 12:14:30;;;;;;;5.60;1.40;;;;;;;25.68;40.82;101297.99;108177;1278;71357;-84
2022/05/17 12:17:13;;;;;;;3.90;1.10;;;;;;;25.47;40.72;101299.91;108003;1278;71203;-84
2022/05/17 12:20:01;;;;;;;4.20;1.70;;;;;;;25.22;40.84;101302.95;107709;1281;61876;-84
2022/05/17 12:22:39;;;;;;;5.10;1.70;;;;;;;25.48;40.99;101295.56;108043;1279;60966;-84
2022/05/17 12:25:26;;;;;;;5.40;1.50;;;;;;;25.70;40.90;101288.44;108230;1278;74190;-84
2022/05/17 12:27:54;;;;;;;2.80;1.20;;;;;;;25.87;40.64;101289.42;108135;1278;71516;-83
2022/05/17 12:33:16;;;;;;;5.70;1.20;;;;;;;26.34;40.30;101285.70;108173;1278;60379;-83
2022/05/17 12:35:44;;;;;;;3.90;1.10;;;;;;;26.53;39.76;101283.04;108262;1279;60576;-84